Time;durP1;ratioP1;P1;durP2;ratioP2;P2;SDS_P1;SDS_P2;PMS_P1;PMS_P2;Temp;Humidity;BMP_temperature;BMP_pressure;BME280_temperature;BME280_humidity;BME280_pressure;Samples;Min_cycle;Max_cycle;Signal;HPM_P1;HPM_P2
2022/02/16 00:00:37;;;;;;;1.15;0.50;;;;;;;15.18;49.70;100274.56;5034237;28;20067;-63
2022/02/16 00:03:03;;;;;;;0.43;0.40;;;;;;;15.19;49.28;100282.47;5016870;28;20026;-63
2022/02/16 00:05:28;;;;;;;0.20;0.20;;;;;;;15.14;49.00;100263.28;5000075;28;20117;-63
2022/02/16 00:07:53;;;;;;;1.75;0.43;;;;;;;15.18;49.77;100267.31;5034314;28;20028;-64
2022/02/16 00:10:19;;;;;;;1.38;0.50;;;;;;;15.17;49.86;100252.13;5034354;28;20530;-63
2022/02/16 00:12:47;;;;;;;0.40;0.30;;;;;;;15.15;49.16;100262.25;5034153;28;20029;-63
2022/02/16 00:15:13;;;;;;;0.95;0.40;;;;;;;15.14;50.04;100252.47;5034184;28;20075;-63
2022/02/16 00:17:39;;;;;;;0.38;0.38;;;;;;;15.11;48.99;100244.72;5034143;28;20503;-64
2022/02/16 00:20:05;;;;;;;1.40;0.35;;;;;;;15.14;48.77;100241.69;5034203;28;20063;-63
2022/02/16 00:22:31;;;;;;;0.25;0.25;;;;;;;15.14;50.04;100241.69;5034166;28;20021;-63
2022/02/16 00:24:56;;;;;;;4.82;0.60;;;;;;;15.12;49.38;100239.19;5033992;28;20083;-63
2022/02/16 00:27:21;;;;;;;2.13;0.70;;;;;;;15.15;48.77;100237.97;5016019;28;20029;-63
2022/02/16 00:29:47;;;;;;;1.27;0.35;;;;;;;15.14;49.30;100225.50;5033972;28;20033;-64
2022/02/16 00:32:13;;;;;;;1.17;0.30;;;;;;;15.12;48.91;100222.13;5034285;28;20044;-63
2022/02/16 00:34:38;;;;;;;0.60;0.50;;;;;;;15.12;49.15;100216.75;5033852;28;20056;-63
2022/02/16 00:37:04;;;;;;;3.05;1.00;;;;;;;15.14;49.70;100214.72;5016304;28;20494;-63
2022/02/16 00:39:29;;;;;;;2.88;0.50;;;;;;;15.16;49.71;100215.38;5033813;28;20022;-63
2022/02/16 00:41:55;;;;;;;1.55;0.30;;;;;;;15.15;49.18;100217.25;5033894;28;20067;-63
2022/02/16 00:44:20;;;;;;;0.75;0.40;;;;;;;15.16;49.82;100218.91;5033803;28;20025;-63
2022/02/16 00:46:45;;;;;;;2.53;0.40;;;;;;;15.20;48.98;100202.38;5033147;28;20076;-63
2022/02/16 00:49:12;;;;;;;0.22;0.20;;;;;;;15.20;50.24;100203.22;5016535;28;20049;-63
2022/02/16 00:51:38;;;;;;;0.82;0.40;;;;;;;15.20;49.58;100197.81;5033452;28;20458;-63
2022/02/16 00:54:04;;;;;;;1.35;0.40;;;;;;;15.23;50.34;100191.25;5033706;28;20033;-62
2022/02/16 00:56:29;;;;;;;0.50;0.20;;;;;;;15.24;49.93;100188.38;5016132;28;20025;-63
2022/02/16 00:58:55;;;;;;;1.75;0.40;;;;;;;15.27;50.35;100182.59;5016125;28;20517;-65
2022/02/16 01:01:20;;;;;;;0.32;0.30;;;;;;;15.32;49.63;100188.34;5033534;28;20391;-63
2022/02/16 01:03:45;;;;;;;1.48;0.30;;;;;;;15.32;49.48;100179.41;5033460;28;20022;-63
2022/02/16 01:06:12;;;;;;;0.93;0.50;;;;;;;15.36;50.23;100175.31;5033569;28;20057;-63
2022/02/16 01:08:38;;;;;;;0.50;0.50;;;;;;;15.38;49.04;100176.00;5033523;28;20036;-63
2022/02/16 01:11:03;;;;;;;0.73;0.32;;;;;;;15.37;50.23;100167.06;5033651;28;20025;-63
2022/02/16 01:13:28;;;;;;;1.13;0.32;;;;;;;15.39;49.54;100174.97;4999427;28;20033;-63
2022/02/16 01:15:54;;;;;;;0.22;0.22;;;;;;;15.39;49.75;100165.03;5033517;28;20025;-62
2022/02/16 01:18:19;;;;;;;0.80;0.50;;;;;;;15.40;50.41;100166.72;5033361;28;20022;-63
2022/02/16 01:20:45;;;;;;;2.50;0.40;;;;;;;15.40;50.11;100160.47;5015720;28;20026;-63
2022/02/16 01:23:11;;;;;;;0.55;0.20;;;;;;;15.40;49.89;100147.81;5033699;28;20018;-63
2022/02/16 01:25:36;;;;;;;1.17;0.40;;;;;;;15.42;50.24;100159.28;5015668;28;20029;-63
2022/02/16 01:28:02;;;;;;;0.20;0.20;;;;;;;15.43;50.46;100147.47;5033117;28;20032;-63
2022/02/16 01:30:27;;;;;;;0.55;0.40;;;;;;;15.49;50.15;100145.94;5033353;28;20436;-63
2022/02/16 01:32:53;;;;;;;3.17;0.50;;;;;;;15.48;48.75;100131.63;5015673;28;20025;-63
2022/02/16 01:35:18;;;;;;;1.27;0.30;;;;;;;15.46;50.17;100144.44;5033258;28;20029;-63
2022/02/16 01:37:43;;;;;;;0.30;0.30;;;;;;;15.48;50.39;100137.00;5033425;28;20053;-63
2022/02/16 01:40:09;;;;;;;0.20;0.20;;;;;;;15.47;49.04;100139.88;5033056;28;20025;-63
2022/02/16 01:42:35;;;;;;;0.75;0.40;;;;;;;15.46;49.21;100143.56;5015312;28;20132;-63
2022/02/16 01:45:00;;;;;;;0.82;0.40;;;;;;;15.44;50.67;100134.78;5015284;28;20036;-64
2022/02/16 01:47:25;;;;;;;0.30;0.30;;;;;;;15.40;49.46;100128.94;5032983;28;20071;-63
2022/02/16 01:49:51;;;;;;;0.47;0.38;;;;;;;15.43;49.22;100123.19;5032943;28;20029;-63
2022/02/16 01:52:16;;;;;;;0.63;0.63;;;;;;;15.36;50.47;100124.91;5032560;28;20578;-64
2022/02/16 01:54:41;;;;;;;1.00;0.50;;;;;;;15.36;49.06;100110.56;5032939;28;20049;-64
2022/02/16 01:57:07;;;;;;;2.88;0.40;;;;;;;15.33;49.44;100116.31;5032824;28;20041;-64
2022/02/16 01:59:34;;;;;;;0.47;0.40;;;;;;;15.35;49.37;100109.75;5035226;28;20026;-63
2022/02/16 02:01:59;;;;;;;1.02;0.57;;;;;;;15.35;49.98;100117.84;5036702;28;20017;-63
2022/02/16 02:04:25;;;;;;;0.75;0.30;;;;;;;15.33;50.38;100114.44;5036421;28;20037;-63
2022/02/16 02:06:50;;;;;;;2.35;0.80;;;;;;;15.29;50.06;100110.44;5036571;28;20108;-63
2022/02/16 02:09:16;;;;;;;0.93;0.85;;;;;;;15.29;51.03;100105.03;5036476;28;20083;-63
2022/02/16 02:11:42;;;;;;;1.55;0.70;;;;;;;15.29;49.67;100099.66;5036505;28;20503;-63
2022/02/16 02:14:08;;;;;;;0.85;0.77;;;;;;;15.26;50.82;100100.00;5036171;28;20025;-63
2022/02/16 02:16:36;;;;;;;2.25;0.52;;;;;;;15.30;51.09;100090.50;5036463;28;20029;-62
2022/02/16 02:19:01;;;;;;;0.82;0.70;;;;;;;15.29;49.80;100083.47;5018796;28;20028;-63
2022/02/16 02:21:27;;;;;;;0.47;0.40;;;;;;;15.28;51.24;100086.31;5036178;28;20038;-64
2022/02/16 02:23:54;;;;;;;1.70;0.50;;;;;;;15.27;51.36;100079.25;5035845;28;20072;-63
2022/02/16 02:26:20;;;;;;;1.00;0.50;;;;;;;15.26;50.07;100075.72;5036084;28;20061;-63
2022/02/16 02:28:46;;;;;;;0.40;0.40;;;;;;;15.25;50.77;100060.53;5036203;28;20060;-63
2022/02/16 02:31:11;;;;;;;1.02;0.50;;;;;;;15.27;51.58;100058.50;5036182;28;20522;-63
2022/02/16 02:33:37;;;;;;;0.30;0.30;;;;;;;15.30;51.62;100060.84;5035909;28;20064;-63
2022/02/16 02:36:04;;;;;;;0.40;0.40;;;;;;;15.33;50.07;100048.84;5035775;28;20032;-63
2022/02/16 02:38:29;;;;;;;0.20;0.20;;;;;;;15.34;50.47;100040.59;5035957;28;20422;-63
2022/02/16 02:41:00;;;;;;;0.25;0.25;;;;;;;15.34;50.29;100031.63;5036199;28;20045;-64
2022/02/16 02:43:26;;;;;;;0.30;0.30;;;;;;;15.32;50.94;100012.94;5035770;28;20383;-63
2022/02/16 02:45:52;;;;;;;0.52;0.32;;;;;;;15.33;51.34;100020.00;5035697;28;20021;-63
2022/02/16 02:48:22;;;;;;;0.57;0.38;;;;;;;15.32;50.26;100012.94;5017762;28;20029;-64
2022/02/16 02:50:50;;;;;;;0.50;0.50;;;;;;;15.31;50.38;100019.34;5017717;28;20033;-63
2022/02/16 02:53:15;;;;;;;4.95;0.40;;;;;;;15.33;50.29;100011.06;5017907;28;20021;-63
2022/02/16 02:55:40;;;;;;;0.93;0.32;;;;;;;15.33;51.32;100009.22;5035758;28;20034;-63
2022/02/16 02:58:06;;;;;;;0.30;0.30;;;;;;;15.34;50.22;100000.09;5035380;28;20055;-63
2022/02/16 03:00:31;;;;;;;0.40;0.30;;;;;;;15.30;50.75;99982.56;5017694;28;20495;-63
2022/02/16 03:02:57;;;;;;;0.60;0.30;;;;;;;15.34;50.54;99972.28;5035494;28;20026;-63
2022/02/16 03:05:22;;;;;;;0.28;0.25;;;;;;;15.34;50.75;99977.66;5001138;28;20539;-62
2022/02/16 03:07:47;;;;;;;0.25;0.25;;;;;;;15.34;51.01;99975.81;5035141;28;20026;-63
2022/02/16 03:10:13;;;;;;;0.20;0.20;;;;;;;15.29;51.86;99970.13;5016722;28;20036;-63
2022/02/16 03:12:38;;;;;;;0.40;0.35;;;;;;;15.31;51.69;99976.19;5035086;28;20053;-63
2022/02/16 03:15:04;;;;;;;0.25;0.20;;;;;;;15.35;51.04;99973.97;5035135;28;20026;-63
2022/02/16 03:17:30;;;;;;;0.17;0.17;;;;;;;15.36;51.50;99965.66;5035002;28;20033;-63
2022/02/16 03:19:55;;;;;;;0.20;0.20;;;;;;;15.31;51.69;99973.47;5035095;28;20033;-63
2022/02/16 03:22:21;;;;;;;0.47;0.17;;;;;;;15.36;51.97;99965.66;5035009;28;20022;-63
2022/02/16 03:24:46;;;;;;;0.45;0.32;;;;;;;15.33;51.62;99960.63;5035197;28;20022;-63
2022/02/16 03:27:12;;;;;;;1.45;0.55;;;;;;;15.37;51.27;99970.06;5035239;28;20028;-63
2022/02/16 03:29:37;;;;;;;0.32;0.10;;;;;;;15.41;50.19;99975.94;5034953;28;20380;-63
2022/02/16 03:32:03;;;;;;;0.10;0.10;;;;;;;15.44;50.66;99967.47;5035051;28;20036;-63
2022/02/16 03:34:29;;;;;;;0.22;0.22;;;;;;;15.41;51.17;99967.84;5017188;28;20036;-63
2022/02/16 03:36:54;;;;;;;1.40;0.20;;;;;;;15.45;50.26;99959.19;5034996;28;20032;-63
2022/02/16 03:39:19;;;;;;;0.40;0.28;;;;;;;15.48;50.44;99966.97;5017100;28;20112;-63
2022/02/16 03:41:45;;;;;;;0.32;0.20;;;;;;;15.47;51.62;99965.28;5017131;28;20472;-63
2022/02/16 03:44:10;;;;;;;0.70;0.13;;;;;;;15.47;50.69;99962.56;5034211;28;20171;-62
2022/02/16 03:46:36;;;;;;;2.85;0.45;;;;;;;15.49;50.21;99963.25;5034432;28;20029;-63
2022/02/16 03:49:01;;;;;;;0.30;0.20;;;;;;;15.47;52.06;99957.19;5034674;28;20160;-63
2022/02/16 03:51:26;;;;;;;0.30;0.17;;;;;;;15.43;51.32;99938.81;5034308;28;20076;-62
2022/02/16 03:53:52;;;;;;;0.17;0.17;;;;;;;15.48;51.27;99939.97;5034509;28;20475;-63
2022/02/16 03:56:17;;;;;;;0.20;0.20;;;;;;;15.44;50.56;99930.50;5016870;28;20033;-63
2022/02/16 03:58:42;;;;;;;0.25;0.25;;;;;;;15.47;51.67;99940.97;5034646;28;20030;-62
2022/02/16 04:01:08;;;;;;;0.20;0.10;;;;;;;15.46;52.10;99939.31;5034174;28;20071;-64
2022/02/16 04:03:33;;;;;;;0.38;0.20;;;;;;;15.43;51.40;99934.25;5016551;28;20028;-63
2022/02/16 04:05:59;;;;;;;1.00;0.22;;;;;;;15.47;52.08;99923.94;5016521;28;20033;-64
2022/02/16 04:08:24;;;;;;;0.28;0.20;;;;;;;15.43;51.27;99928.84;5034312;28;20025;-63
2022/02/16 04:10:49;;;;;;;0.30;0.20;;;;;;;15.40;52.05;99934.63;5016518;28;20017;-63
2022/02/16 04:13:15;;;;;;;1.02;0.30;;;;;;;15.44;51.85;99926.97;5034091;28;20025;-63
2022/02/16 04:15:40;;;;;;;2.33;0.45;;;;;;;15.44;51.75;99922.41;5034315;28;20026;-64
2022/02/16 04:18:05;;;;;;;0.63;0.20;;;;;;;15.43;50.70;99917.22;5034106;28;20475;-62
2022/02/16 04:20:31;;;;;;;0.20;0.20;;;;;;;15.43;51.88;99901.88;5016381;28;20029;-63
2022/02/16 04:22:56;;;;;;;0.15;0.15;;;;;;;15.43;50.80;99903.72;5034109;28;20096;-63
2022/02/16 04:25:22;;;;;;;0.20;0.20;;;;;;;15.42;51.54;99904.72;5034021;28;20022;-63
2022/02/16 04:27:47;;;;;;;0.10;0.10;;;;;;;15.43;51.48;99896.47;5034247;28;20061;-63
2022/02/16 04:30:12;;;;;;;0.52;0.32;;;;;;;15.41;51.97;99887.69;5034045;28;20116;-62
2022/02/16 04:32:38;;;;;;;0.30;0.30;;;;;;;15.43;50.74;99890.22;5016187;28;20040;-63
2022/02/16 04:35:05;;;;;;;0.17;0.17;;;;;;;15.43;50.92;99882.97;5033749;28;20021;-63
2022/02/16 04:37:31;;;;;;;0.22;0.22;;;;;;;15.43;51.19;99864.09;5034022;28;20029;-63
2022/02/16 04:39:57;;;;;;;0.22;0.20;;;;;;;15.43;52.21;99868.63;5033660;28;20511;-63
2022/02/16 04:42:23;;;;;;;0.15;0.13;;;;;;;15.39;52.43;99860.06;5033985;28;20080;-62
2022/02/16 04:44:48;;;;;;;0.15;0.15;;;;;;;15.42;51.97;99857.00;5033551;28;20021;-63
2022/02/16 04:47:14;;;;;;;1.08;0.52;;;;;;;15.38;52.13;99850.28;5033455;28;20105;-64
2022/02/16 04:49:39;;;;;;;0.20;0.20;;;;;;;15.44;51.94;99857.66;5033580;28;20075;-63
2022/02/16 04:52:04;;;;;;;0.40;0.22;;;;;;;15.46;51.15;99842.16;5033448;28;20107;-63
2022/02/16 04:54:31;;;;;;;1.60;0.20;;;;;;;15.48;51.24;99837.41;5033576;28;20067;-63
2022/02/16 04:56:56;;;;;;;0.22;0.10;;;;;;;15.50;51.08;99821.84;5033779;28;20076;-63
2022/02/16 04:59:22;;;;;;;0.10;0.10;;;;;;;15.50;51.99;99821.84;5033594;28;20479;-63
2022/02/16 05:01:47;;;;;;;0.10;0.10;;;;;;;15.48;52.27;99813.13;5033900;28;20498;-63
2022/02/16 05:04:13;;;;;;;0.57;0.20;;;;;;;15.44;51.70;99817.16;5033446;28;20033;-63
2022/02/16 05:06:41;;;;;;;0.13;0.13;;;;;;;15.47;51.74;99810.59;5033788;28;20029;-63
2022/02/16 05:09:08;;;;;;;0.20;0.10;;;;;;;15.44;51.60;99808.22;5033871;28;20032;-63
2022/02/16 05:11:33;;;;;;;1.00;0.20;;;;;;;15.46;51.37;99793.59;5033568;28;20025;-63
2022/02/16 05:13:59;;;;;;;1.92;0.68;;;;;;;15.46;52.58;99804.38;5033367;28;20033;-63
2022/02/16 05:16:24;;;;;;;0.10;0.10;;;;;;;15.47;52.14;99794.41;5033258;28;20034;-63
2022/02/16 05:18:50;;;;;;;0.40;0.28;;;;;;;15.47;51.68;99789.84;5033384;28;20029;-63
2022/02/16 05:21:16;;;;;;;0.20;0.20;;;;;;;15.49;52.19;99771.63;5015924;28;20037;-63
2022/02/16 05:23:42;;;;;;;1.08;0.32;;;;;;;15.50;52.67;99772.44;5015893;28;20028;-63
2022/02/16 05:26:07;;;;;;;0.73;0.20;;;;;;;15.48;52.71;99751.03;5033404;28;20040;-63
2022/02/16 05:28:33;;;;;;;0.80;0.20;;;;;;;15.48;51.54;99769.94;5033398;28;20031;-63
2022/02/16 05:30:58;;;;;;;0.45;0.25;;;;;;;15.50;51.17;99759.78;5033149;28;20080;-63
2022/02/16 05:33:23;;;;;;;0.10;0.10;;;;;;;15.54;51.52;99744.91;5033966;28;20053;-63
2022/02/16 05:35:49;;;;;;;0.98;0.10;;;;;;;15.55;52.95;99738.47;5037132;28;20018;-63
2022/02/16 05:38:15;;;;;;;0.20;0.20;;;;;;;15.56;51.78;99740.13;5037247;28;20391;-63
2022/02/16 05:40:42;;;;;;;0.05;0.05;;;;;;;15.57;51.24;99736.44;5037002;28;20033;-63
2022/02/16 05:43:10;;;;;;;0.65;0.10;;;;;;;15.58;52.20;99727.28;5037245;28;20637;-63
2022/02/16 05:45:36;;;;;;;1.27;0.13;;;;;;;15.59;51.40;99734.38;5019575;28;20446;-62
2022/02/16 05:48:01;;;;;;;0.10;0.10;;;;;;;15.60;51.15;99725.25;5019227;28;20064;-63
2022/02/16 05:50:27;;;;;;;0.10;0.10;;;;;;;15.58;51.88;99708.38;5037032;28;20390;-63
2022/02/16 05:52:52;;;;;;;0.05;0.05;;;;;;;15.67;52.64;99717.22;5036809;28;20129;-63
2022/02/16 05:55:17;;;;;;;0.20;0.10;;;;;;;15.66;52.51;99710.16;5036819;28;20478;-63
2022/02/16 05:57:43;;;;;;;0.30;0.10;;;;;;;15.67;52.85;99701.03;5036815;28;20031;-64
2022/02/16 06:00:09;;;;;;;0.15;0.15;;;;;;;15.68;51.51;99695.44;5037040;28;20050;-63
2022/02/16 06:02:34;;;;;;;0.10;0.10;;;;;;;15.73;51.79;99693.00;5036776;28;20026;-63
2022/02/16 06:04:59;;;;;;;0.43;0.13;;;;;;;15.74;51.33;99689.25;5036452;28;20040;-63
2022/02/16 06:07:25;;;;;;;0.15;0.15;;;;;;;15.76;51.94;99691.78;5036629;28;20024;-63
2022/02/16 06:09:50;;;;;;;0.10;0.10;;;;;;;15.73;51.70;99690.31;5036504;28;20029;-63
2022/02/16 06:12:15;;;;;;;0.25;0.25;;;;;;;15.73;52.21;99682.22;5036429;28;20025;-64
2022/02/16 06:14:41;;;;;;;0.10;0.10;;;;;;;15.79;51.51;99674.38;5036335;28;20128;-63
2022/02/16 06:17:06;;;;;;;2.28;0.15;;;;;;;15.81;51.34;99661.50;5036282;28;20053;-63
2022/02/16 06:19:31;;;;;;;0.10;0.10;;;;;;;15.86;52.55;99675.25;5036358;28;20025;-63
2022/02/16 06:21:57;;;;;;;0.38;0.20;;;;;;;15.87;51.70;99644.53;5036334;28;20040;-63
2022/02/16 06:24:22;;;;;;;0.15;0.15;;;;;;;15.89;51.67;99648.72;5036227;28;20383;-64
2022/02/16 06:26:47;;;;;;;0.05;0.05;;;;;;;15.88;52.37;99643.53;5002057;28;20029;-63
2022/02/16 06:29:13;;;;;;;0.30;0.15;;;;;;;15.89;52.21;99639.78;5036248;28;20434;-64
2022/02/16 06:31:38;;;;;;;0.10;0.10;;;;;;;15.90;52.50;99623.41;5036214;28;20573;-63
2022/02/16 06:34:03;;;;;;;0.15;0.10;;;;;;;15.93;52.29;99638.38;5036175;28;20064;-63
2022/02/16 06:36:29;;;;;;;0.20;0.20;;;;;;;15.93;51.42;99627.56;5036281;28;20075;-63
2022/02/16 06:38:54;;;;;;;0.32;0.17;;;;;;;15.95;51.50;99639.00;5036190;28;20026;-63
2022/02/16 06:41:21;;;;;;;0.22;0.00;;;;;;;15.93;51.21;99649.19;5036209;28;20076;-63
2022/02/16 06:43:47;;;;;;;0.10;0.10;;;;;;;15.85;51.76;99625.84;5036005;28;20017;-63
2022/02/16 06:46:12;;;;;;;0.82;0.17;;;;;;;15.85;52.73;99635.81;5000754;28;20108;-63
2022/02/16 06:48:38;;;;;;;0.47;0.20;;;;;;;15.82;52.25;99618.13;5017991;28;20454;-63
2022/02/16 06:51:03;;;;;;;0.80;0.17;;;;;;;15.82;52.58;99611.88;5032645;28;20058;-63
2022/02/16 06:53:28;;;;;;;0.10;0.00;;;;;;;15.82;52.88;99615.44;4998408;28;20022;-63
2022/02/16 06:55:53;;;;;;;1.08;0.57;;;;;;;15.82;52.35;99630.78;4981940;28;20022;-63
2022/02/16 06:58:19;;;;;;;0.00;0.00;;;;;;;15.79;52.68;99623.06;5030716;28;20025;-63
2022/02/16 07:00:44;;;;;;;0.73;0.30;;;;;;;15.64;52.92;99596.97;5018180;28;20041;-63
2022/02/16 07:03:10;;;;;;;0.22;0.10;;;;;;;15.76;51.85;99623.44;5035673;28;20037;-63
2022/02/16 07:05:35;;;;;;;0.10;0.10;;;;;;;15.73;52.71;99605.78;5035443;28;20026;-63
2022/02/16 07:08:00;;;;;;;1.77;0.10;;;;;;;15.77;52.08;99611.63;5035473;28;20034;-63
2022/02/16 07:10:26;;;;;;;0.98;0.17;;;;;;;15.79;52.21;99614.97;5035610;28;20033;-63
2022/02/16 07:12:52;;;;;;;0.50;0.17;;;;;;;15.78;51.96;99627.63;5035637;28;20029;-63
2022/02/16 07:15:17;;;;;;;0.50;0.10;;;;;;;15.80;52.18;99611.25;5035590;28;20044;-63
2022/02/16 07:17:43;;;;;;;0.25;0.10;;;;;;;15.86;53.27;99610.44;5035443;28;20018;-63
2022/02/16 07:20:11;;;;;;;0.08;0.08;;;;;;;15.89;53.38;99610.06;5035289;28;20033;-63
2022/02/16 07:22:48;;;;;;;0.10;0.10;;;;;;;15.90;52.35;99595.53;5001413;28;20026;-63
2022/02/16 07:25:15;;;;;;;0.57;0.10;;;;;;;15.90;53.27;99600.94;5035195;28;20112;-63
2022/02/16 07:27:40;;;;;;;0.28;0.20;;;;;;;15.88;52.68;99592.22;5017552;28;20028;-63
2022/02/16 07:30:08;;;;;;;0.03;0.03;;;;;;;15.88;52.16;99614.66;5001072;28;20037;-63
2022/02/16 07:32:37;;;;;;;0.10;0.10;;;;;;;15.88;52.16;99608.41;5035333;28;20108;-63
2022/02/16 07:35:03;;;;;;;0.22;0.22;;;;;;;15.90;53.42;99590.16;5034732;28;20045;-64
2022/02/16 07:37:28;;;;;;;0.10;0.10;;;;;;;15.89;52.15;99610.06;5034852;28;20095;-64
2022/02/16 07:39:53;;;;;;;0.65;0.30;;;;;;;15.94;53.48;99596.84;5034855;28;20025;-63
2022/02/16 07:42:19;;;;;;;0.10;0.10;;;;;;;15.94;53.31;99599.53;5034445;28;20030;-63
2022/02/16 07:44:45;;;;;;;0.00;0.00;;;;;;;15.94;52.65;99599.53;5034586;28;20034;-63
2022/02/16 07:47:11;;;;;;;0.10;0.10;;;;;;;15.92;52.66;99593.47;5017459;28;20056;-63
2022/02/16 07:49:36;;;;;;;0.28;0.00;;;;;;;15.94;53.07;99602.25;5035189;28;20054;-63
2022/02/16 07:52:03;;;;;;;0.43;0.20;;;;;;;15.94;53.07;99607.66;5034598;28;20057;-63
2022/02/16 07:54:29;;;;;;;1.48;0.10;;;;;;;16.00;52.24;99607.69;5016689;28;20013;-63
2022/02/16 07:56:55;;;;;;;0.10;0.10;;;;;;;16.01;52.51;99612.06;5034360;28;20029;-63
2022/02/16 07:59:20;;;;;;;0.10;0.10;;;;;;;16.02;53.63;99599.41;5034518;28;20025;-63
2022/02/16 08:01:46;;;;;;;0.00;0.00;;;;;;;16.02;53.06;99604.81;5034488;28;20398;-63
2022/02/16 08:04:17;;;;;;;0.03;0.03;;;;;;;16.05;52.57;99599.03;5016455;28;20030;-63
2022/02/16 08:06:44;;;;;;;0.03;0.00;;;;;;;16.07;52.76;99596.94;5033869;28;20029;-63
2022/02/16 08:09:10;;;;;;;0.10;0.08;;;;;;;16.08;52.50;99609.44;5016443;28;20025;-63
2022/02/16 08:11:40;;;;;;;0.00;0.00;;;;;;;16.11;53.59;99603.63;5034654;28;20483;-64
2022/02/16 08:14:08;;;;;;;0.00;0.00;;;;;;;16.15;53.43;99607.63;5034599;28;20415;-63
2022/02/16 08:16:34;;;;;;;0.00;0.00;;;;;;;16.14;53.29;99598.66;5016102;28;20052;-63
2022/02/16 08:19:01;;;;;;;0.38;0.20;;;;;;;16.23;52.67;99607.47;5015987;28;20116;-63
2022/02/16 08:21:27;;;;;;;0.47;0.20;;;;;;;16.24;53.43;99598.34;5033942;28;20531;-63
2022/02/16 08:23:52;;;;;;;2.38;0.20;;;;;;;16.22;53.99;99594.97;5033720;28;20040;-63
2022/02/16 08:26:18;;;;;;;0.55;0.20;;;;;;;16.27;53.64;99603.38;5033790;28;20032;-63
2022/02/16 08:28:43;;;;;;;0.00;0.00;;;;;;;16.28;52.37;99596.91;5033839;28;20037;-63
2022/02/16 08:31:10;;;;;;;0.15;0.15;;;;;;;16.32;52.62;99609.00;5033846;28;20060;-63
2022/02/16 08:33:35;;;;;;;0.00;0.00;;;;;;;16.31;52.56;99616.28;5033973;28;20510;-63
2022/02/16 08:36:00;;;;;;;0.10;0.10;;;;;;;16.31;52.67;99610.03;5016670;28;20045;-63
2022/02/16 08:38:26;;;;;;;0.10;0.00;;;;;;;16.33;53.60;99618.81;5034006;28;20029;-63
2022/02/16 08:40:51;;;;;;;0.38;0.20;;;;;;;16.36;53.38;99625.69;5033779;28;20026;-63
2022/02/16 08:43:17;;;;;;;0.10;0.10;;;;;;;16.38;54.04;99632.56;5033833;28;20053;-63
2022/02/16 08:45:42;;;;;;;2.75;0.10;;;;;;;16.41;53.95;99642.97;5034017;28;20029;-63
2022/02/16 08:48:08;;;;;;;0.43;0.25;;;;;;;16.40;53.25;99635.91;5034136;28;20044;-63
2022/02/16 08:50:34;;;;;;;0.10;0.10;;;;;;;16.33;53.29;99613.41;4999876;28;20043;-63
2022/02/16 08:52:59;;;;;;;0.80;0.20;;;;;;;16.45;53.32;99617.22;5033775;28;20112;-63
2022/02/16 08:55:25;;;;;;;0.35;0.20;;;;;;;16.50;53.44;99630.16;5033935;28;20025;-63
2022/02/16 08:57:51;;;;;;;0.50;0.50;;;;;;;16.53;53.38;99636.00;5033855;28;20022;-63
2022/02/16 09:00:17;;;;;;;1.63;0.20;;;;;;;16.58;53.80;99651.66;5016428;28;20453;-63
2022/02/16 09:02:42;;;;;;;2.17;0.30;;;;;;;16.57;53.34;99653.53;5033882;28;20033;-64
2022/02/16 09:05:07;;;;;;;0.70;0.30;;;;;;;16.59;53.17;99670.38;5033763;28;20026;-64
2022/02/16 09:07:33;;;;;;;0.20;0.20;;;;;;;16.63;53.34;99668.97;5033944;28;20541;-63
2022/02/16 09:10:05;;;;;;;0.32;0.10;;;;;;;16.67;53.30;99666.69;5003716;28;20137;-63
2022/02/16 09:12:30;;;;;;;0.17;0.10;;;;;;;16.65;53.22;99663.34;5037914;28;20025;-64
2022/02/16 09:14:56;;;;;;;0.20;0.20;;;;;;;16.65;53.06;99656.09;5037588;28;20033;-63
2022/02/16 09:17:24;;;;;;;1.20;0.25;;;;;;;16.71;54.17;99660.72;5037125;28;20030;-63
2022/02/16 09:19:51;;;;;;;0.10;0.10;;;;;;;16.72;54.13;99666.97;5037463;28;20025;-63
2022/02/16 09:22:19;;;;;;;2.05;0.30;;;;;;;16.71;53.79;99666.13;5038239;28;20018;-63
2022/02/16 09:24:45;;;;;;;0.55;0.20;;;;;;;16.75;54.25;99664.66;5037545;28;20402;-64
2022/02/16 09:27:12;;;;;;;0.73;0.17;;;;;;;16.79;53.26;99663.25;5020399;28;20033;-63
2022/02/16 09:29:37;;;;;;;2.10;0.20;;;;;;;16.80;52.81;99661.41;5038430;28;20048;-63
2022/02/16 09:32:03;;;;;;;0.17;0.17;;;;;;;16.86;53.01;99668.72;5019686;28;20045;-63
2022/02/16 09:34:29;;;;;;;0.17;0.17;;;;;;;16.88;54.02;99656.66;5003956;28;20396;-63
2022/02/16 09:36:54;;;;;;;0.32;0.15;;;;;;;16.97;53.66;99648.38;5016666;28;20091;-63
2022/02/16 09:39:19;;;;;;;0.90;0.20;;;;;;;16.98;54.05;99650.03;5017842;28;20147;-63
2022/02/16 09:41:46;;;;;;;0.60;0.38;;;;;;;16.98;53.30;99655.44;5017971;28;20045;-63
2022/02/16 09:44:13;;;;;;;0.30;0.30;;;;;;;17.00;53.30;99654.22;5000094;28;20472;-63
2022/02/16 09:46:39;;;;;;;0.32;0.20;;;;;;;17.09;54.05;99674.66;5017685;28;20030;-64
2022/02/16 09:49:04;;;;;;;0.30;0.30;;;;;;;17.11;54.01;99666.38;4999957;28;20040;-63
2022/02/16 09:51:29;;;;;;;1.10;0.60;;;;;;;17.15;53.44;99651.38;4988441;28;20057;-63
2022/02/16 09:53:55;;;;;;;0.32;0.30;;;;;;;17.20;53.37;99657.88;4978664;28;20184;-63
2022/02/16 09:56:20;;;;;;;0.47;0.38;;;;;;;17.19;54.52;99653.50;4978442;28;20026;-63
2022/02/16 09:58:46;;;;;;;1.02;0.40;;;;;;;17.26;53.13;99658.94;4978153;28;20022;-62
2022/02/16 10:01:14;;;;;;;0.40;0.30;;;;;;;17.29;54.17;99655.84;4977860;28;20042;-63
2022/02/16 10:03:40;;;;;;;0.35;0.30;;;;;;;17.32;54.18;99652.72;4976980;28;20030;-63
2022/02/16 10:06:06;;;;;;;0.77;0.68;;;;;;;17.32;54.82;99663.56;4976738;28;20034;-64
2022/02/16 10:08:45;;;;;;;0.47;0.47;;;;;;;17.40;54.59;99672.34;4976549;28;20031;-63
2022/02/16 10:11:12;;;;;;;0.50;0.40;;;;;;;17.45;54.47;99672.56;4977829;28;20031;-64
2022/02/16 10:13:38;;;;;;;1.55;0.35;;;;;;;17.44;54.84;99661.97;4977873;28;20041;-64
2022/02/16 10:16:04;;;;;;;0.40;0.40;;;;;;;17.51;54.25;99670.94;4977699;28;20026;-64
2022/02/16 10:18:30;;;;;;;1.52;0.30;;;;;;;17.53;53.88;99665.31;4977052;28;20022;-64
2022/02/16 10:21:09;;;;;;;0.30;0.30;;;;;;;17.55;54.50;99669.53;4978109;28;20102;-64
2022/02/16 10:23:44;;;;;;;1.75;0.40;;;;;;;17.60;54.29;99688.72;4978079;28;20420;-63
2022/02/16 10:26:13;;;;;;;0.57;0.50;;;;;;;17.63;54.17;99677.47;4977540;28;20026;-63
2022/02/16 10:28:43;;;;;;;0.60;0.43;;;;;;;17.67;54.66;99670.59;4977719;28;20066;-63
2022/02/16 10:31:10;;;;;;;2.58;0.45;;;;;;;17.75;53.86;99673.16;4977831;28;20540;-65
2022/02/16 10:33:45;;;;;;;0.20;0.20;;;;;;;17.74;53.96;99668.75;4977898;28;20026;-64
2022/02/16 10:36:14;;;;;;;0.22;0.22;;;;;;;17.83;54.42;99678.38;4977230;28;20025;-64
2022/02/16 10:38:56;;;;;;;0.40;0.40;;;;;;;17.83;53.88;99651.28;4975704;28;20035;-64
2022/02/16 10:41:40;;;;;;;0.40;0.22;;;;;;;17.94;53.89;99642.56;4977921;28;20029;-64
2022/02/16 10:44:15;;;;;;;0.15;0.15;;;;;;;18.06;54.29;99650.09;4977334;28;20027;-64
2022/02/16 10:46:41;;;;;;;1.15;0.30;;;;;;;18.04;54.36;99653.81;4977581;28;20437;-64
2022/02/16 10:49:14;;;;;;;0.35;0.22;;;;;;;18.18;54.23;99675.50;4977403;28;20026;-64
2022/02/16 10:51:42;;;;;;;0.57;0.40;;;;;;;18.15;54.12;99665.09;4978003;28;20066;-64
2022/02/16 10:54:18;;;;;;;1.95;0.30;;;;;;;18.26;54.95;99662.59;4976448;28;20031;-64
2022/02/16 10:56:47;;;;;;;0.30;0.22;;;;;;;18.27;53.44;99663.44;4977794;28;20492;-64
2022/02/16 10:59:13;;;;;;;0.10;0.10;;;;;;;18.30;54.32;99668.44;4976199;28;20117;-64
2022/02/16 11:01:42;;;;;;;1.40;0.40;;;;;;;18.35;54.31;99644.25;4959858;28;20069;-64
2022/02/16 11:04:10;;;;;;;0.22;0.22;;;;;;;18.37;54.19;99636.78;4975956;28;20030;-64
2022/02/16 11:06:44;;;;;;;0.15;0.10;;;;;;;18.39;54.48;99634.69;4976285;28;20018;-64
2022/02/16 11:09:18;;;;;;;2.58;0.20;;;;;;;18.42;53.94;99645.09;4977077;28;20070;-65
2022/02/16 11:11:46;;;;;;;0.63;0.30;;;;;;;18.42;54.22;99637.81;4977068;28;20481;-64
2022/02/16 11:14:11;;;;;;;0.65;0.28;;;;;;;18.36;54.45;99624.25;4975936;28;20023;-64
2022/02/16 11:16:38;;;;;;;0.30;0.13;;;;;;;18.48;54.61;99639.69;4977317;28;20034;-64
2022/02/16 11:19:23;;;;;;;0.38;0.22;;;;;;;18.51;54.34;99660.13;4959830;28;20030;-64
2022/02/16 11:22:06;;;;;;;0.13;0.13;;;;;;;18.51;54.21;99674.53;4976660;28;20022;-64
2022/02/16 11:24:35;;;;;;;3.20;0.20;;;;;;;18.54;54.72;99670.56;4976554;28;20389;-64
2022/02/16 11:27:20;;;;;;;0.32;0.20;;;;;;;18.58;54.45;99658.28;4976988;28;20030;-65